Perezville, Texas
Current Conditions -  °F | °C
As of 10:53 PM on Saturday 22 Nov 2014 (Local Time) from KMFE Reporting Station
Thunderstorm Thunderstorm  
Wind Chill: 64°   Ceiling: 7000
Heat Index: 64°   Visibility: 4mi
Dew Point: 63°   Wind: 10mph
Humidity: 96%   Direction: 130°SE
Pressure: 29.77"   Gusts: NA
Location:  26.2167°N, 98.325°W
Report Text: KMFE 230453Z 13009KT 4SM +TSRA BR SCT044 BKN070 OVC100 18/17 A2977 RMK AO2 LTG DSNT ALQDS TSB11E27B32 SLP078 P0022 T01780172
Loading
Personal Weather Stations






























Interactive Weather Map New forecast layout! Learn more

10-Day Weather Forecast

Advertisements
Track Severe Weather on mobile